Flugplatz Elz

Für EDFY sind keine METAR/TAF Berichte vorhanden.
Es werden die Flugwettermeldungen vom Flugplatz Siegerland in 31 km Entfernung angezeigt.

Prognose für EDGS

vom 11.05. um 17:00 UTC

Zwischen 18:00 UTC und 20:00 UTC

Wind 7 kt aus 280°

Sichtweite 7000 m

aufgelockert bewölkt in 1000 ft

aufgebrochene Bewölkung in 2000 ft


Zwischen 18:00 UTC und 20:00 UTC zeitweise

Sichtweite 4000 m

schwacher Regen

feuchter Dunst

aufgebrochene Bewölkung in 800 ft


Zwischen 20:00 und 23:00 UTC übergehend zu

Wind 7 kt aus 280°

Sichtweite 2500 m

schwacher Regen

feuchter Dunst

aufgebrochene Bewölkung in 600 ft


Zwischen 22:00 UTC und 03:00 UTC zeitweise mit einer Wahrscheinlichkeit von 30%

Sichtweite 700 m

schwacher Regen

Nebel

aufgebrochene Bewölkung in 100 ft

TAF EDGS 111700Z 1118/1203 28007KT 7000 SCT010 BKN020 TEMPO 1118/1120 4000 -RA BR BKN008 BECMG 1120/1123 2500 -RA BR BKN006 PROB30 TEMPO 1122/1203 0700 -RA FG BKN001
Impressum